Time;durP1;ratioP1;P1;durP2;ratioP2;P2;SDS_P1;SDS_P2;PMS_P1;PMS_P2;Temp;Humidity;BMP_temperature;BMP_pressure;BME280_temperature;BME280_humidity;BME280_pressure;Samples;Min_cycle;Max_cycle;Signal;HPM_P1;HPM_P2
2024/01/11 00:01:57;;;;;;;20.33;10.63;;;13.60;28.30;;;;;;6123784;22;44726;-50
2024/01/11 00:04:46;;;;;;;19.75;10.40;;;13.50;28.20;;;;;;6097405;22;45252;-50
2024/01/11 00:07:18;;;;;;;21.38;10.35;;;13.50;28.30;;;;;;6099876;22;44793;-51
2024/01/11 00:09:47;;;;;;;18.35;10.30;;;13.50;28.30;;;;;;6145964;22;44745;-51
2024/01/11 00:12:29;;;;;;;17.90;9.98;;;13.50;28.10;;;;;;6152443;22;44988;-51
2024/01/11 00:15:05;;;;;;;19.20;10.25;;;13.50;28.10;;;;;;6110112;22;45764;-50
2024/01/11 00:17:37;;;;;;;18.98;9.82;;;13.60;28.40;;;;;;6142644;22;45156;-50
2024/01/11 00:20:14;;;;;;;18.63;10.15;;;13.50;28.30;;;;;;6094350;22;44819;-50
2024/01/11 00:22:43;;;;;;;17.65;10.10;;;13.50;28.50;;;;;;6105152;22;44742;-50
2024/01/11 00:25:12;;;;;;;20.67;10.00;;;13.60;28.30;;;;;;6112984;22;45843;-50
2024/01/11 00:27:52;;;;;;;20.02;10.90;;;13.50;28.20;;;;;;6082190;22;44719;-51
2024/01/11 00:30:19;;;;;;;18.75;10.43;;;13.50;28.20;;;;;;6099776;22;44673;-50
2024/01/11 00:32:47;;;;;;;17.70;9.32;;;13.50;28.10;;;;;;6127288;22;44959;-50
2024/01/11 00:35:30;;;;;;;18.58;9.73;;;13.60;28.20;;;;;;6145943;22;46276;-50
2024/01/11 00:38:12;;;;;;;19.20;9.65;;;13.50;28.00;;;;;;6140218;22;44904;-51
2024/01/11 00:40:42;;;;;;;18.75;10.05;;;13.50;28.10;;;;;;6131474;22;45047;-50
2024/01/11 00:43:19;;;;;;;18.38;10.32;;;13.50;28.10;;;;;;6137123;22;44620;-50
2024/01/11 00:45:48;;;;;;;18.33;9.50;;;13.50;28.10;;;;;;6140298;22;45233;-51
2024/01/11 00:48:16;;;;;;;21.10;10.48;;;13.50;28.00;;;;;;6138734;22;44600;-51
2024/01/11 00:50:45;;;;;;;18.77;10.00;;;13.50;28.10;;;;;;6124759;22;44809;-51
2024/01/11 00:53:17;;;;;;;18.52;10.05;;;13.50;28.10;;;;;;6110185;22;45105;-51
2024/01/11 00:55:44;;;;;;;18.65;10.70;;;13.50;28.00;;;;;;6102085;22;46160;-51
2024/01/11 00:58:11;;;;;;;20.55;11.57;;;13.50;28.10;;;;;;6097404;22;44807;-51
2024/01/11 01:00:43;;;;;;;19.38;10.18;;;13.50;28.10;;;;;;6122736;22;45059;-51
2024/01/11 01:03:14;;;;;;;23.63;11.65;;;13.40;27.90;;;;;;6098229;22;44962;-50
2024/01/11 01:05:43;;;;;;;22.17;10.65;;;13.50;28.00;;;;;;6102974;22;45718;-50
2024/01/11 01:08:53;;;;;;;18.98;10.13;;;13.50;28.20;;;;;;6139831;22;44802;-51
2024/01/11 01:11:20;;;;;;;18.20;9.80;;;13.50;28.10;;;;;;6046860;22;44759;-51
2024/01/11 01:13:46;;;;;;;18.70;9.95;;;13.50;28.00;;;;;;6069180;22;44651;-50
2024/01/11 01:16:17;;;;;;;19.02;10.13;;;13.40;27.90;;;;;;6073523;22;46405;-50
2024/01/11 01:18:51;;;;;;;19.88;10.23;;;13.40;27.90;;;;;;6084480;22;44968;-51
2024/01/11 01:21:34;;;;;;;20.65;9.85;;;13.30;27.90;;;;;;6072092;22;44606;-51
2024/01/11 01:24:15;;;;;;;20.77;10.88;;;13.20;27.50;;;;;;6061971;22;44796;-50
2024/01/11 01:26:43;;;;;;;22.27;10.70;;;13.20;27.50;;;;;;6076997;22;45244;-50
2024/01/11 01:29:10;;;;;;;22.70;11.32;;;13.20;27.70;;;;;;6049491;22;44787;-51
2024/01/11 01:31:39;;;;;;;19.42;10.82;;;13.20;27.70;;;;;;6085469;22;44876;-50
2024/01/11 01:34:08;;;;;;;22.13;11.27;;;13.10;27.60;;;;;;6062862;22;44677;-50
2024/01/11 01:36:34;;;;;;;20.25;11.30;;;13.10;27.50;;;;;;6060819;22;46434;-51
2024/01/11 01:39:03;;;;;;;16.98;10.55;;;13.10;28.80;;;;;;6066968;22;44782;-51
2024/01/11 01:41:31;;;;;;;22.73;11.02;;;13.10;30.00;;;;;;6059164;22;44906;-50
2024/01/11 01:44:08;;;;;;;21.00;10.68;;;13.10;29.50;;;;;;6064228;22;45240;-50
2024/01/11 01:46:48;;;;;;;18.83;10.30;;;13.10;29.00;;;;;;6080545;22;46472;-51
2024/01/11 01:49:18;;;;;;;20.33;11.18;;;13.10;28.60;;;;;;6053839;22;44626;-50
2024/01/11 01:51:48;;;;;;;18.80;10.50;;;13.00;28.30;;;;;;6063234;22;44926;-50
2024/01/11 01:54:15;;;;;;;18.80;10.25;;;13.00;28.10;;;;;;6061957;22;44841;-50
2024/01/11 01:57:32;;;;;;;18.90;11.38;;;13.00;27.80;;;;;;6080219;22;45149;-51
2024/01/11 02:00:11;;;;;;;19.52;10.38;;;13.00;27.50;;;;;;6076348;22;44691;-51
2024/01/11 02:02:40;;;;;;;17.05;10.27;;;12.90;27.50;;;;;;6073954;22;44649;-50
2024/01/11 02:05:08;;;;;;;19.77;11.48;;;12.90;27.50;;;;;;6074153;22;44847;-51
2024/01/11 02:07:35;;;;;;;18.77;9.95;;;12.90;27.40;;;;;;6064890;22;46149;-50
2024/01/11 02:10:04;;;;;;;19.20;11.07;;;12.90;27.30;;;;;;6059448;22;44687;-51
2024/01/11 02:12:47;;;;;;;20.65;11.20;;;12.80;27.20;;;;;;6070435;22;44719;-50
2024/01/11 02:15:16;;;;;;;20.23;10.88;;;12.80;27.00;;;;;;6061050;22;44973;-50
2024/01/11 02:17:52;;;;;;;19.52;10.63;;;12.80;27.20;;;;;;6050464;22;45672;-50
2024/01/11 02:20:22;;;;;;;17.58;10.88;;;12.80;27.10;;;;;;6061666;22;44721;-50
2024/01/11 02:25:58;;;;;;;19.83;10.63;;;12.80;26.90;;;;;;6070483;22;44721;-50
2024/01/11 02:28:38;;;;;;;20.77;11.15;;;12.80;27.00;;;;;;6070930;22;45747;-51
2024/01/11 02:31:05;;;;;;;18.30;10.90;;;12.80;27.00;;;;;;6063556;22;44802;-50
2024/01/11 02:33:42;;;;;;;18.80;10.52;;;12.70;26.90;;;;;;6066465;22;44908;-50
2024/01/11 02:36:10;;;;;;;20.85;10.50;;;12.70;26.90;;;;;;6071302;22;44782;-50
2024/01/11 02:38:49;;;;;;;17.52;10.43;;;12.70;26.90;;;;;;6053160;22;46107;-50
2024/01/11 02:41:34;;;;;;;22.30;10.57;;;12.70;26.90;;;;;;6071098;22;44839;-51
2024/01/11 02:44:10;;;;;;;21.70;11.10;;;12.70;26.70;;;;;;6073421;22;44627;-50
2024/01/11 02:46:36;;;;;;;19.35;10.48;;;12.70;26.80;;;;;;6070851;22;44756;-50
2024/01/11 02:49:29;;;;;;;20.45;10.85;;;12.70;26.80;;;;;;6116473;22;45476;-50
2024/01/11 02:54:36;;;;;;;21.58;11.00;;;12.70;26.70;;;;;;6051243;22;44754;-50
2024/01/11 02:57:05;;;;;;;22.38;11.57;;;12.60;26.70;;;;;;6061814;22;45085;-50
2024/01/11 02:59:32;;;;;;;22.30;11.05;;;12.70;26.70;;;;;;6081028;22;45550;-50
2024/01/11 03:01:59;;;;;;;24.65;11.35;;;12.70;26.80;;;;;;6066640;22;45183;-50
2024/01/11 03:04:33;;;;;;;19.92;11.23;;;12.60;26.60;;;;;;6046508;22;44819;-50
2024/01/11 03:07:18;;;;;;;20.17;11.20;;;12.60;26.60;;;;;;6072740;22;44800;-50
2024/01/11 03:12:36;;;;;;;19.63;10.90;;;12.60;26.60;;;;;;6042060;22;45215;-50
2024/01/11 03:15:16;;;;;;;19.75;10.57;;;12.50;26.50;;;;;;6055155;22;44748;-50
2024/01/11 03:17:44;;;;;;;22.92;11.30;;;12.50;26.60;;;;;;6080209;22;44806;-50
2024/01/11 03:20:11;;;;;;;21.85;11.40;;;12.50;26.60;;;;;;6080817;22;45926;-50
2024/01/11 03:23:08;;;;;;;21.08;11.70;;;12.50;26.60;;;;;;6069954;22;44787;-50
2024/01/11 03:25:44;;;;;;;21.10;11.00;;;12.50;26.50;;;;;;6059485;22;44744;-50
2024/01/11 03:28:13;;;;;;;19.20;10.48;;;12.50;26.30;;;;;;6066373;22;44907;-50
2024/01/11 03:30:49;;;;;;;22.40;11.40;;;12.50;26.50;;;;;;6077338;22;46412;-50
2024/01/11 03:33:17;;;;;;;20.40;10.98;;;12.50;26.50;;;;;;6067275;22;44661;-50
2024/01/11 03:35:44;;;;;;;29.20;11.98;;;12.50;26.40;;;;;;6059310;22;44753;-50
2024/01/11 03:38:11;;;;;;;21.80;11.10;;;12.50;26.40;;;;;;6076437;22;44779;-50
2024/01/11 03:40:38;;;;;;;19.08;10.88;;;12.50;26.40;;;;;;6065175;22;46055;-50
2024/01/11 03:43:06;;;;;;;21.40;11.07;;;12.50;26.40;;;;;;6056965;22;45043;-50
2024/01/11 03:45:44;;;;;;;20.23;11.32;;;12.50;26.30;;;;;;6081186;22;44824;-50
2024/01/11 03:48:24;;;;;;;22.77;11.73;;;12.50;26.20;;;;;;6061925;22;44953;-51
2024/01/11 03:50:51;;;;;;;19.50;10.82;;;12.50;26.20;;;;;;6073357;22;46332;-51
2024/01/11 03:53:18;;;;;;;21.23;11.25;;;12.40;26.10;;;;;;6066757;22;44716;-50
2024/01/11 03:55:44;;;;;;;25.08;11.93;;;12.40;26.10;;;;;;6059788;22;44849;-51
2024/01/11 03:58:22;;;;;;;25.65;11.93;;;12.40;26.10;;;;;;6085318;22;44678;-51
2024/01/11 04:00:50;;;;;;;20.88;11.65;;;12.40;26.00;;;;;;6080712;22;45555;-51
2024/01/11 04:03:19;;;;;;;24.00;13.00;;;12.40;26.00;;;;;;6067880;22;44686;-50
2024/01/11 04:05:49;;;;;;;22.08;11.93;;;12.40;26.00;;;;;;6065673;22;44826;-50
2024/01/11 04:08:25;;;;;;;22.93;12.07;;;12.30;25.90;;;;;;6065703;22;44871;-51
2024/01/11 04:11:14;;;;;;;21.95;11.88;;;12.40;26.00;;;;;;6076768;22;46363;-50
2024/01/11 04:13:51;;;;;;;20.75;12.07;;;12.40;26.00;;;;;;6075159;22;44820;-50
2024/01/11 04:16:44;;;;;;;24.48;12.93;;;12.30;25.90;;;;;;6063506;22;44641;-51
2024/01/11 04:19:12;;;;;;;22.40;12.43;;;12.30;25.80;;;;;;6055775;22;45076;-51
2024/01/11 04:21:39;;;;;;;23.75;12.25;;;12.30;25.80;;;;;;6043499;22;46231;-50
2024/01/11 04:24:07;;;;;;;22.63;12.77;;;12.30;25.90;;;;;;6058854;22;44709;-50
2024/01/11 04:26:34;;;;;;;21.60;11.85;;;12.30;26.00;;;;;;6063151;22;44831;-50
2024/01/11 04:29:03;;;;;;;26.48;12.85;;;12.30;25.90;;;;;;6070205;22;44716;-50
2024/01/11 04:31:51;;;;;;;22.45;12.48;;;12.30;25.90;;;;;;6065655;22;45427;-50
2024/01/11 04:34:18;;;;;;;26.05;12.73;;;12.30;25.80;;;;;;6060043;22;44643;-50
2024/01/11 04:37:05;;;;;;;28.27;13.38;;;12.30;25.80;;;;;;6076638;22;44661;-51
2024/01/11 04:39:54;;;;;;;24.67;12.25;;;12.30;25.70;;;;;;6072439;22;44844;-50
2024/01/11 04:42:21;;;;;;;23.17;12.38;;;12.40;25.90;;;;;;6051476;22;45612;-51
2024/01/11 04:45:04;;;;;;;21.50;12.40;;;12.50;27.70;;;;;;6073096;22;44704;-51
2024/01/11 04:47:33;;;;;;;23.00;12.30;;;12.50;29.10;;;;;;6070432;22;44607;-51
2024/01/11 04:50:07;;;;;;;24.63;11.63;;;12.50;28.50;;;;;;6069697;22;44923;-51
2024/01/11 04:52:34;;;;;;;26.80;13.40;;;12.50;28.10;;;;;;6053565;22;46590;-51
2024/01/11 04:55:02;;;;;;;28.40;14.18;;;12.50;27.70;;;;;;6083779;22;44850;-51
2024/01/11 04:57:28;;;;;;;21.13;12.48;;;12.50;27.40;;;;;;6070798;22;44790;-51
2024/01/11 05:00:21;;;;;;;27.20;13.57;;;12.50;27.30;;;;;;6106833;22;44827;-51
2024/01/11 05:03:10;;;;;;;25.13;13.27;;;12.40;27.00;;;;;;6059524;22;45886;-51
2024/01/11 05:05:39;;;;;;;26.58;13.93;;;12.40;26.80;;;;;;6065764;22;44681;-51
2024/01/11 05:08:06;;;;;;;25.73;13.75;;;12.40;26.80;;;;;;6063278;22;44731;-51
2024/01/11 05:10:50;;;;;;;26.33;14.18;;;12.40;26.80;;;;;;6074080;22;44749;-51
2024/01/11 05:13:17;;;;;;;30.23;14.38;;;12.40;26.60;;;;;;6079345;22;46043;-50
2024/01/11 05:15:44;;;;;;;24.83;13.77;;;12.40;26.60;;;;;;6080400;22;44836;-51
2024/01/11 05:18:21;;;;;;;30.38;15.23;;;12.40;26.60;;;;;;6071615;22;44720;-51
2024/01/11 05:20:48;;;;;;;23.20;13.82;;;12.40;26.60;;;;;;6085846;22;44647;-51
2024/01/11 05:23:17;;;;;;;25.08;13.13;;;12.40;26.60;;;;;;6060987;22;45476;-51
2024/01/11 05:25:45;;;;;;;31.95;15.02;;;12.40;26.50;;;;;;6066851;22;44836;-51
2024/01/11 05:31:04;;;;;;;27.55;14.40;;;12.30;26.40;;;;;;6061170;22;45110;-51
2024/01/11 05:33:47;;;;;;;28.80;14.45;;;12.40;26.40;;;;;;6063009;22;46176;-51
2024/01/11 05:36:14;;;;;;;27.98;14.98;;;12.30;26.20;;;;;;6051388;22;44763;-51
2024/01/11 05:38:41;;;;;;;29.63;15.52;;;12.30;26.30;;;;;;6072431;22;45137;-51
2024/01/11 05:41:11;;;;;;;26.35;14.82;;;12.30;26.20;;;;;;6089841;22;44842;-51
2024/01/11 05:43:48;;;;;;;26.10;14.40;;;12.30;26.20;;;;;;6061359;22;46212;-51
2024/01/11 05:46:16;;;;;;;29.65;16.08;;;12.30;26.20;;;;;;6069995;22;44854;-51
2024/01/11 05:49:03;;;;;;;30.45;15.15;;;12.30;26.30;;;;;;6070810;22;44737;-51
2024/01/11 05:51:30;;;;;;;25.73;14.00;;;12.30;26.10;;;;;;6081560;22;44855;-51
2024/01/11 05:53:58;;;;;;;27.83;14.70;;;12.30;26.10;;;;;;6067361;22;46268;-51
2024/01/11 05:56:25;;;;;;;26.25;14.23;;;12.30;26.10;;;;;;6075640;22;44956;-51
2024/01/11 05:58:51;;;;;;;27.50;14.50;;;12.30;26.10;;;;;;6061097;22;44758;-50
2024/01/11 06:01:18;;;;;;;25.63;14.48;;;12.30;26.10;;;;;;6060811;22;44820;-50
2024/01/11 06:03:59;;;;;;;27.92;13.88;;;12.30;26.10;;;;;;6069342;22;46567;-50
2024/01/11 06:06:47;;;;;;;27.52;14.68;;;12.20;25.90;;;;;;6071915;22;44674;-50
2024/01/11 06:09:27;;;;;;;29.50;14.75;;;12.20;25.80;;;;;;6078943;22;44844;-51
2024/01/11 06:11:53;;;;;;;28.83;14.40;;;12.20;25.80;;;;;;6066607;22;44748;-50
2024/01/11 06:14:24;;;;;;;33.38;15.93;;;12.20;25.80;;;;;;6079964;22;45118;-50
2024/01/11 06:17:00;;;;;;;27.55;14.57;;;12.20;25.80;;;;;;6057744;22;44809;-50
2024/01/11 06:19:38;;;;;;;27.70;14.85;;;12.20;25.90;;;;;;6071048;22;44789;-50
2024/01/11 06:22:11;;;;;;;29.25;15.25;;;12.20;25.80;;;;;;6080000;22;44921;-50
2024/01/11 06:24:38;;;;;;;28.30;15.65;;;12.20;25.80;;;;;;6060734;22;46641;-50
2024/01/11 06:27:07;;;;;;;27.17;14.80;;;12.20;25.80;;;;;;6071310;22;44671;-50
2024/01/11 06:29:34;;;;;;;25.10;13.93;;;12.10;25.70;;;;;;6097533;22;44571;-51
2024/01/11 06:32:02;;;;;;;31.58;16.20;;;12.10;25.70;;;;;;6074290;22;44661;-50
2024/01/11 06:34:30;;;;;;;27.30;15.35;;;12.20;25.80;;;;;;6082892;22;47056;-50
2024/01/11 06:42:50;;;;;;;31.42;15.95;;;12.10;25.60;;;;;;6065500;22;44685;-51
2024/01/11 06:45:19;;;;;;;31.05;14.93;;;12.10;25.70;;;;;;6067183;22;46107;-50
2024/01/11 06:47:49;;;;;;;28.00;14.77;;;12.10;25.80;;;;;;6063343;22;44761;-50
2024/01/11 06:50:19;;;;;;;29.02;15.30;;;12.10;25.70;;;;;;6066335;22;44747;-50
2024/01/11 06:52:49;;;;;;;27.20;15.13;;;12.10;25.70;;;;;;6087844;22;44748;-50
2024/01/11 06:55:37;;;;;;;32.00;15.20;;;12.10;25.60;;;;;;6087266;22;46872;-50
2024/01/11 06:58:24;;;;;;;31.98;14.80;;;12.20;25.60;;;;;;6075162;22;44956;-51
2024/01/11 07:01:01;;;;;;;29.50;15.68;;;12.10;25.30;;;;;;6060574;22;44807;-50
2024/01/11 07:03:33;;;;;;;26.77;14.80;;;12.10;25.60;;;;;;6052244;22;44701;-51
2024/01/11 07:06:07;;;;;;;28.35;15.05;;;12.20;25.80;;;;;;6064907;22;46507;-51
2024/01/11 07:08:37;;;;;;;27.52;15.13;;;12.40;26.10;;;;;;6072608;22;44737;-51
2024/01/11 07:11:22;;;;;;;25.75;14.43;;;12.30;26.70;;;;;;6091666;22;44718;-51
2024/01/11 07:13:48;;;;;;;26.80;15.07;;;12.30;26.80;;;;;;6062607;22;44829;-50
2024/01/11 07:16:15;;;;;;;28.60;15.93;;;12.20;26.40;;;;;;6063863;22;46157;-51
2024/01/11 07:18:44;;;;;;;32.92;16.48;;;12.20;26.20;;;;;;6073021;22;45220;-51
2024/01/11 07:21:15;;;;;;;29.33;15.68;;;12.20;25.90;;;;;;6052460;22;44678;-50
2024/01/11 07:23:45;;;;;;;27.65;15.32;;;12.10;25.70;;;;;;6066634;22;44693;-50
2024/01/11 07:26:42;;;;;;;31.73;16.58;;;12.10;26.60;;;;;;6062588;22;45752;-50
2024/01/11 07:29:35;;;;;;;28.90;15.48;;;12.10;25.50;;;;;;6072179;22;45040;-51
2024/01/11 07:32:03;;;;;;;27.33;15.05;;;12.00;25.40;;;;;;6047248;22;44907;-51
2024/01/11 07:34:32;;;;;;;33.70;16.17;;;12.00;25.50;;;;;;6079538;22;44740;-51
2024/01/11 07:37:17;;;;;;;32.13;15.90;;;12.00;25.50;;;;;;6061376;22;45396;-51
2024/01/11 07:39:59;;;;;;;30.02;15.63;;;12.00;25.50;;;;;;6074818;22;44981;-51
2024/01/11 07:42:49;;;;;;;29.25;15.55;;;12.00;25.50;;;;;;6077409;22;44726;-51
2024/01/11 07:45:23;;;;;;;29.13;15.52;;;12.00;25.60;;;;;;6070320;22;44949;-50
2024/01/11 07:47:55;;;;;;;30.17;16.67;;;12.00;25.70;;;;;;6052655;22;45329;-50
2024/01/11 07:50:23;;;;;;;27.83;15.30;;;12.00;25.80;;;;;;6076997;22;44705;-50
2024/01/11 07:52:51;;;;;;;31.10;15.57;;;12.00;25.70;;;;;;6082270;22;44803;-51
2024/01/11 07:55:29;;;;;;;29.98;15.65;;;12.00;25.70;;;;;;6063551;22;44900;-51
2024/01/11 07:58:29;;;;;;;28.98;14.63;;;12.00;25.70;;;;;;6062975;22;46071;-51
2024/01/11 08:01:06;;;;;;;29.83;15.15;;;12.00;25.70;;;;;;6069115;22;45062;-50
2024/01/11 08:03:52;;;;;;;30.25;15.43;;;12.00;25.80;;;;;;6050314;22;45053;-51
2024/01/11 08:06:19;;;;;;;32.75;16.20;;;12.00;25.70;;;;;;6018031;22;45380;-51
2024/01/11 08:09:13;;;;;;;29.50;16.13;;;12.00;25.70;;;;;;6025206;22;46116;-50
2024/01/11 08:11:41;;;;;;;29.77;15.70;;;12.10;25.70;;;;;;6019729;22;44836;-50
2024/01/11 08:14:11;;;;;;;27.30;15.52;;;12.10;25.70;;;;;;6038945;22;45157;-50
2024/01/11 08:16:48;;;;;;;28.50;15.98;;;12.10;25.60;;;;;;6019501;22;45329;-50
2024/01/11 08:19:24;;;;;;;27.60;14.73;;;12.10;25.60;;;;;;6010523;22;46020;-50
2024/01/11 08:22:13;;;;;;;27.77;14.30;;;12.10;25.60;;;;;;6019883;22;45422;-51
2024/01/11 08:24:52;;;;;;;29.17;14.93;;;12.10;25.50;;;;;;6028284;22;45190;-51
2024/01/11 08:27:46;;;;;;;33.67;15.02;;;12.20;25.50;;;;;;6051537;22;45326;-50
2024/01/11 08:30:36;;;;;;;27.50;14.05;;;12.20;25.50;;;;;;6019056;22;46493;-50
2024/01/11 08:33:22;;;;;;;31.73;16.42;;;12.10;25.40;;;;;;6020610;22;45132;-50
2024/01/11 08:35:49;;;;;;;35.55;15.75;;;12.20;25.50;;;;;;6031249;22;45165;-51
2024/01/11 08:38:47;;;;;;;33.90;15.32;;;12.30;25.70;;;;;;6008405;22;45031;-50
2024/01/11 08:41:38;;;;;;;30.77;15.13;;;12.20;25.60;;;;;;6044327;22;45599;-50
2024/01/11 08:44:18;;;;;;;30.55;15.32;;;12.20;25.60;;;;;;6027435;22;45549;-50
2024/01/11 08:47:09;;;;;;;27.92;14.45;;;12.20;25.60;;;;;;6044992;22;44915;-50
2024/01/11 08:49:38;;;;;;;27.65;15.00;;;12.10;25.60;;;;;;6035691;22;45354;-51
2024/01/11 08:55:16;;;;;;;29.60;12.73;;;12.10;25.70;;;;;;6035957;22;45409;-50
2024/01/11 08:58:07;;;;;;;27.67;14.82;;;12.40;27.30;;;;;;6019221;22;45376;-50
2024/01/11 09:01:00;;;;;;;33.67;14.85;;;12.30;26.30;;;;;;6040410;22;45323;-50
2024/01/11 09:03:29;;;;;;;25.75;14.23;;;12.30;26.20;;;;;;6024747;22;45798;-50
2024/01/11 09:06:18;;;;;;;32.17;15.13;;;12.20;26.20;;;;;;6057123;22;45171;-50
2024/01/11 09:08:45;;;;;;;27.38;15.40;;;12.20;26.20;;;;;;6027941;22;45157;-50
2024/01/11 09:11:29;;;;;;;26.77;13.35;;;12.10;26.10;;;;;;6048392;22;45055;-50
2024/01/11 09:14:19;;;;;;;27.83;14.80;;;12.10;26.10;;;;;;6020372;22;45475;-50
2024/01/11 09:16:48;;;;;;;28.45;14.15;;;12.10;26.10;;;;;;6030340;22;45101;-50
2024/01/11 09:19:57;;;;;;;27.58;15.23;;;12.40;26.20;;;;;;6058947;22;45219;-50
2024/01/11 09:23:03;;;;;;;32.25;14.98;;;13.10;25.50;;;;;;6088025;22;45432;-50
2024/01/11 09:25:59;;;;;;;28.38;14.10;;;13.70;25.00;;;;;;6035769;22;45532;-50
2024/01/11 09:28:25;;;;;;;28.15;14.88;;;14.00;24.50;;;;;;6015197;22;45480;-50
2024/01/11 09:31:07;;;;;;;25.63;14.90;;;14.30;24.40;;;;;;6022778;22;45344;-50
2024/01/11 09:33:34;;;;;;;26.58;14.25;;;14.40;24.30;;;;;;6012526;22;45107;-50
2024/01/11 09:36:23;;;;;;;26.70;14.63;;;14.50;25.10;;;;;;6007584;22;46340;-50
2024/01/11 09:39:23;;;;;;;26.73;14.00;;;14.60;24.10;;;;;;6037255;22;45177;-50
2024/01/11 09:42:19;;;;;;;26.35;13.80;;;14.60;24.10;;;;;;6007782;22;45564;-50
2024/01/11 09:44:46;;;;;;;25.45;14.25;;;14.10;24.80;;;;;;6025499;22;45036;-50
2024/01/11 09:47:33;;;;;;;23.17;13.57;;;13.70;25.30;;;;;;6020697;22;45458;-50
2024/01/11 09:50:11;;;;;;;29.05;14.48;;;13.50;26.10;;;;;;6032166;22;44968;-50
2024/01/11 09:52:50;;;;;;;27.70;13.73;;;13.40;26.50;;;;;;6025578;22;45171;-50
2024/01/11 09:58:19;;;;;;;27.85;14.35;;;13.20;26.70;;;;;;6018297;22;46796;-50
2024/01/11 10:00:48;;;;;;;25.88;13.63;;;13.40;26.20;;;;;;6017945;22;45575;-50
2024/01/11 10:03:16;;;;;;;24.55;13.10;;;14.10;25.80;;;;;;6012491;22;45320;-50
2024/01/11 10:06:07;;;;;;;25.73;13.65;;;14.30;26.10;;;;;;6009460;22;45363;-50
2024/01/11 10:12:30;;;;;;;24.70;13.27;;;13.80;26.90;;;;;;5962314;22;45403;-50
2024/01/11 10:23:13;;;;;;;27.65;15.95;;;13.40;27.40;;;;;;6179284;22;46189;-50
2024/01/11 10:26:11;;;;;;;34.30;14.57;;;14.00;26.60;;;;;;6021011;22;45240;-50
2024/01/11 10:29:01;;;;;;;27.30;13.18;;;14.20;27.50;;;;;;6032503;22;45160;-51
2024/01/11 10:32:00;;;;;;;25.08;13.43;;;14.00;27.50;;;;;;6074482;22;45989;-50
2024/01/11 10:34:44;;;;;;;28.73;13.43;;;13.80;27.80;;;;;;6027179;22;45326;-50
2024/01/11 10:37:20;;;;;;;24.85;12.93;;;13.70;27.90;;;;;;6036583;22;45371;-50
2024/01/11 10:40:25;;;;;;;25.67;13.60;;;13.60;27.80;;;;;;6010291;22;45326;-50
2024/01/11 10:43:22;;;;;;;23.98;12.85;;;13.50;27.90;;;;;;6023344;22;47371;-50
2024/01/11 10:46:52;;;;;;;25.10;13.45;;;13.50;28.20;;;;;;6026752;22;45244;-50
2024/01/11 10:49:34;;;;;;;26.25;14.55;;;13.40;28.00;;;;;;6022944;22;45133;-50
2024/01/11 10:52:14;;;;;;;30.55;14.93;;;13.40;28.20;;;;;;6026832;22;45920;-50
2024/01/11 10:54:53;;;;;;;29.40;14.65;;;13.30;28.20;;;;;;6018697;22;46238;-50
2024/01/11 10:57:48;;;;;;;28.63;14.77;;;13.30;28.80;;;;;;6021918;22;45282;-50
2024/01/11 11:00:36;;;;;;;29.45;14.30;;;13.30;28.20;;;;;;6018778;22;45188;-50
2024/01/11 11:03:22;;;;;;;29.63;14.18;;;13.40;28.20;;;;;;6021483;22;45439;-50
2024/01/11 11:06:02;;;;;;;28.63;14.15;;;13.40;28.10;;;;;;6019918;22;46104;-50
2024/01/11 11:12:22;;;;;;;31.90;14.77;;;13.40;27.90;;;;;;5986612;22;45328;-50
2024/01/11 11:15:03;;;;;;;27.98;14.10;;;13.40;27.90;;;;;;6008571;22;45387;-50
2024/01/11 11:17:52;;;;;;;28.30;14.02;;;13.40;27.80;;;;;;6016853;22;46256;-50
2024/01/11 11:20:36;;;;;;;25.98;14.13;;;13.40;28.00;;;;;;6006658;22;45438;-50
2024/01/11 11:23:09;;;;;;;30.05;14.98;;;13.40;28.00;;;;;;6020098;22;45282;-51
2024/01/11 11:26:16;;;;;;;25.50;14.18;;;13.40;28.30;;;;;;5997947;22;45418;-50
2024/01/11 11:28:43;;;;;;;25.92;12.98;;;13.30;28.30;;;;;;6011940;22;47567;-50
2024/01/11 11:35:02;;;;;;;30.20;14.45;;;13.30;28.50;;;;;;5987577;22;45138;-50
2024/01/11 11:41:45;;;;;;;30.02;15.02;;;13.10;28.30;;;;;;5984112;22;45562;-50
2024/01/11 11:44:26;;;;;;;27.30;14.70;;;13.00;28.30;;;;;;6015646;22;45442;-50
2024/01/11 11:47:23;;;;;;;31.92;15.27;;;12.90;28.50;;;;;;6019929;22;45185;-50
2024/01/11 11:50:17;;;;;;;28.58;15.45;;;12.90;28.70;;;;;;5994571;22;45459;-50
2024/01/11 11:53:34;;;;;;;32.88;16.05;;;12.90;28.70;;;;;;5979904;22;46218;-50
2024/01/11 11:56:23;;;;;;;26.88;14.43;;;12.90;28.60;;;;;;6050286;22;45578;-50
2024/01/11 11:59:59;;;;;;;29.23;14.48;;;12.80;28.50;;;;;;6004049;22;45194;-50
2024/01/11 12:02:29;;;;;;;24.40;13.10;;;12.80;28.70;;;;;;6010648;22;45208;-50
2024/01/11 12:05:24;;;;;;;26.20;14.07;;;12.90;32.10;;;;;;6005632;22;46963;-50
2024/01/11 12:08:07;;;;;;;24.95;13.75;;;12.90;31.30;;;;;;6042835;22;45623;-50
2024/01/11 12:10:57;;;;;;;26.23;13.30;;;12.80;29.80;;;;;;6022766;22;45389;-50
2024/01/11 12:13:44;;;;;;;27.05;13.23;;;12.80;29.40;;;;;;6015502;22;45397;-50
2024/01/11 12:16:11;;;;;;;23.98;13.80;;;12.80;29.10;;;;;;6021801;22;46394;-50
2024/01/11 12:18:54;;;;;;;27.33;13.98;;;12.80;29.00;;;;;;6013742;22;45265;-50
2024/01/11 12:21:48;;;;;;;25.50;13.32;;;12.80;28.60;;;;;;6033796;22;45431;-50
2024/01/11 12:24:36;;;;;;;23.85;13.32;;;12.70;28.40;;;;;;6028410;22;45477;-50
2024/01/11 12:27:37;;;;;;;27.88;14.07;;;12.70;28.50;;;;;;6018061;22;47700;-50
2024/01/11 12:30:29;;;;;;;28.52;14.57;;;12.70;28.30;;;;;;6025251;22;45288;-50
2024/01/11 12:33:03;;;;;;;25.50;13.80;;;12.70;28.40;;;;;;6010866;22;45255;-50
2024/01/11 12:35:57;;;;;;;25.75;14.68;;;12.70;28.50;;;;;;6021486;22;45618;-50
2024/01/11 12:38:28;;;;;;;29.20;14.77;;;12.70;28.40;;;;;;6016100;22;47354;-50
2024/01/11 12:41:31;;;;;;;26.08;14.70;;;12.70;28.50;;;;;;5995194;22;45275;-50
2024/01/11 12:44:12;;;;;;;28.65;14.57;;;12.70;28.30;;;;;;6007244;22;45315;-50
2024/01/11 12:47:08;;;;;;;29.25;14.48;;;12.60;28.40;;;;;;6030287;22;45470;-50
2024/01/11 12:49:51;;;;;;;28.50;14.27;;;12.60;28.20;;;;;;6010636;22;45901;-50
2024/01/11 12:52:21;;;;;;;26.75;14.27;;;12.70;28.30;;;;;;6032001;22;45232;-50
2024/01/11 12:55:02;;;;;;;27.60;14.45;;;12.70;28.40;;;;;;6000063;22;45330;-50
2024/01/11 12:57:29;;;;;;;26.38;14.00;;;12.70;28.30;;;;;;6006866;22;45462;-50
2024/01/11 13:00:10;;;;;;;27.73;14.40;;;12.70;28.30;;;;;;5995087;22;47437;-51
2024/01/11 13:02:38;;;;;;;29.88;14.52;;;12.70;28.40;;;;;;6013668;22;45368;-51
2024/01/11 13:05:15;;;;;;;27.92;14.45;;;12.70;28.30;;;;;;6019247;22;45130;-50
2024/01/11 13:08:06;;;;;;;25.70;13.60;;;12.70;28.40;;;;;;6019146;22;45201;-50
2024/01/11 13:10:51;;;;;;;27.70;14.50;;;12.70;28.30;;;;;;6029632;22;46519;-50
2024/01/11 13:13:30;;;;;;;28.25;15.13;;;12.70;28.20;;;;;;6032485;22;45115;-50
2024/01/11 13:15:56;;;;;;;31.55;14.60;;;12.70;28.30;;;;;;6031370;22;45781;-50
2024/01/11 13:18:45;;;;;;;27.08;14.43;;;12.70;28.40;;;;;;6021890;22;45492;-50
2024/01/11 13:21:35;;;;;;;28.92;14.77;;;12.60;28.30;;;;;;6022507;22;45764;-50
2024/01/11 13:24:32;;;;;;;35.95;15.57;;;12.70;28.30;;;;;;6098870;22;45347;-50
2024/01/11 13:27:40;;;;;;;30.63;14.55;;;12.60;28.30;;;;;;6029935;22;45370;-50
2024/01/11 13:30:24;;;;;;;33.00;15.82;;;12.60;28.30;;;;;;6006336;22;45331;-50
2024/01/11 13:32:51;;;;;;;28.40;15.02;;;12.60;28.40;;;;;;6008190;22;46318;-50
2024/01/11 13:35:20;;;;;;;26.48;14.88;;;12.60;28.40;;;;;;6015589;22;45194;-50
2024/01/11 13:38:02;;;;;;;27.33;14.55;;;12.60;28.50;;;;;;6059104;22;45205;-50
2024/01/11 13:40:43;;;;;;;30.30;15.68;;;12.70;28.50;;;;;;6023715;22;45486;-50
2024/01/11 13:43:41;;;;;;;29.48;15.50;;;12.60;28.50;;;;;;6050468;22;45404;-50
2024/01/11 13:49:11;;;;;;;27.65;14.57;;;12.70;28.50;;;;;;6013157;22;45362;-50
2024/01/11 13:51:38;;;;;;;29.83;14.63;;;12.70;28.50;;;;;;6029813;22;45578;-49
2024/01/11 13:54:36;;;;;;;27.08;14.60;;;12.70;28.60;;;;;;6032686;22;47026;-50
2024/01/11 13:57:26;;;;;;;26.70;14.30;;;12.60;28.50;;;;;;6002688;22;45351;-49
2024/01/11 13:59:53;;;;;;;27.40;14.02;;;12.70;28.60;;;;;;6019517;22;45119;-50
2024/01/11 14:02:30;;;;;;;27.90;14.57;;;12.80;29.80;;;;;;6019768;22;45392;-50
2024/01/11 14:05:17;;;;;;;25.88;14.05;;;12.80;29.80;;;;;;6031063;22;47685;-50
2024/01/11 14:08:09;;;;;;;25.80;13.88;;;12.80;29.70;;;;;;6081369;22;45282;-50
2024/01/11 14:10:40;;;;;;;23.40;13.70;;;12.80;29.50;;;;;;6028645;22;45346;-50
2024/01/11 14:13:42;;;;;;;23.10;12.70;;;12.70;29.30;;;;;;6015518;22;45178;-50